Time;durP1;ratioP1;P1;durP2;ratioP2;P2;SDS_P1;SDS_P2;PMS_P1;PMS_P2;Temp;Humidity;BMP_temperature;BMP_pressure;BME280_temperature;BME280_humidity;BME280_pressure;Samples;Min_cycle;Max_cycle;Signal;HPM_P1;HPM_P2
2023/05/09 00:00:08;;;;;;;47.55;32.47;;;9.80;99.90;;;;;;5033470;28;20071;-75
2023/05/09 00:02:38;;;;;;;47.15;33.92;;;9.80;99.90;;;;;;5035455;28;20037;-75
2023/05/09 00:05:06;;;;;;;46.65;32.22;;;9.90;99.90;;;;;;5030709;28;20045;-74
2023/05/09 00:07:35;;;;;;;51.58;33.30;;;9.90;99.90;;;;;;5030575;28;20060;-75
2023/05/09 00:10:03;;;;;;;45.08;32.00;;;9.80;99.90;;;;;;5030739;28;20124;-75
2023/05/09 00:12:30;;;;;;;43.75;31.90;;;9.90;99.90;;;;;;5024163;28;20052;-75
2023/05/09 00:14:58;;;;;;;44.75;31.42;;;9.80;99.90;;;;;;5010724;28;20040;-75
2023/05/09 00:17:27;;;;;;;43.30;29.05;;;9.80;99.90;;;;;;5010810;28;20054;-75
2023/05/09 00:19:55;;;;;;;44.78;31.70;;;9.80;99.90;;;;;;5026720;28;20064;-74
2023/05/09 00:22:22;;;;;;;43.03;31.27;;;9.80;99.90;;;;;;5029251;28;20041;-75
2023/05/09 00:24:51;;;;;;;43.20;30.92;;;9.80;99.90;;;;;;5032489;28;20417;-74
2023/05/09 00:27:19;;;;;;;41.33;31.08;;;9.70;99.90;;;;;;5030156;28;20052;-76
2023/05/09 00:29:46;;;;;;;41.28;30.27;;;9.60;99.90;;;;;;5028426;28;20050;-76
2023/05/09 00:32:14;;;;;;;45.28;32.40;;;9.60;99.90;;;;;;5029843;28;20041;-74
2023/05/09 00:34:41;;;;;;;44.70;31.58;;;9.50;99.90;;;;;;5030174;28;20045;-75
2023/05/09 00:37:08;;;;;;;39.97;30.42;;;9.50;99.90;;;;;;5029531;28;20053;-75
2023/05/09 00:39:38;;;;;;;44.28;30.10;;;9.50;99.90;;;;;;5012164;28;20037;-74
2023/05/09 00:42:07;;;;;;;43.97;31.80;;;9.40;99.90;;;;;;5029369;28;20087;-75
2023/05/09 00:44:34;;;;;;;48.28;35.63;;;9.40;99.90;;;;;;5012986;28;20072;-76
2023/05/09 00:47:01;;;;;;;44.38;34.95;;;9.30;99.90;;;;;;5012228;28;20073;-75
2023/05/09 00:49:29;;;;;;;51.53;37.35;;;9.30;99.90;;;;;;4996517;28;20494;-75
2023/05/09 00:51:57;;;;;;;58.08;38.60;;;9.20;99.90;;;;;;4991582;28;20052;-76
2023/05/09 00:54:25;;;;;;;56.53;37.63;;;9.20;99.90;;;;;;5014971;28;20068;-74
2023/05/09 00:56:52;;;;;;;56.42;36.95;;;9.20;99.90;;;;;;5012429;28;20046;-77
2023/05/09 00:59:21;;;;;;;50.78;35.00;;;9.20;99.90;;;;;;5011843;28;20168;-74
2023/05/09 01:01:49;;;;;;;51.20;32.40;;;9.20;99.90;;;;;;5011831;28;20033;-75
2023/05/09 01:04:17;;;;;;;50.53;31.05;;;9.20;99.90;;;;;;5027849;28;20049;-75
2023/05/09 01:06:52;;;;;;;47.00;29.35;;;9.20;99.90;;;;;;5027574;28;20037;-75
2023/05/09 01:09:24;;;;;;;;;;;9.20;99.90;;;;;;5029544;28;20063;-77
2023/05/09 01:12:02;;;;;;;72.63;48.60;;;9.20;99.90;;;;;;5035245;28;19929;-76
2023/05/09 01:14:53;;;;;;;44.05;29.95;;;9.20;99.90;;;;;;5044632;28;20033;-75
2023/05/09 01:17:27;;;;;;;47.20;29.45;;;9.20;99.90;;;;;;5016939;28;20064;-75
2023/05/09 01:20:05;;;;;;;50.38;30.88;;;9.20;99.90;;;;;;5028627;28;20048;-77
2023/05/09 01:22:36;;;;;;;48.63;31.10;;;9.10;99.90;;;;;;5028174;28;20494;-75
2023/05/09 01:25:26;;;;;;;52.30;30.73;;;9.10;99.90;;;;;;5000908;28;20042;-75
2023/05/09 01:28:03;;;;;;;55.50;31.15;;;9.10;99.90;;;;;;4996485;28;20052;-77
2023/05/09 01:30:34;;;;;;;49.97;31.17;;;9.10;99.90;;;;;;5026590;28;20104;-76
2023/05/09 01:33:08;;;;;;;52.60;32.78;;;8.90;99.90;;;;;;5027018;28;20412;-75
2023/05/09 01:35:39;;;;;;;45.00;30.63;;;9.00;99.90;;;;;;5030562;28;20053;-76
2023/05/09 01:38:11;;;;;;;52.80;32.70;;;8.90;99.90;;;;;;5013352;28;20052;-74
2023/05/09 01:40:41;;;;;;;54.60;32.95;;;8.90;99.90;;;;;;5012174;28;20049;-76
2023/05/09 01:43:11;;;;;;;66.30;32.70;;;8.90;99.90;;;;;;5028717;28;20091;-75
2023/05/09 01:45:41;;;;;;;53.75;31.75;;;8.80;99.90;;;;;;5027988;28;20029;-75
2023/05/09 01:48:10;;;;;;;51.22;32.33;;;8.80;99.90;;;;;;5031034;28;20044;-75
2023/05/09 01:50:40;;;;;;;51.25;30.95;;;8.70;99.90;;;;;;5034538;28;20072;-75
2023/05/09 01:53:10;;;;;;;54.00;31.75;;;8.70;99.90;;;;;;5025744;23;20054;-78
2023/05/09 01:55:39;;;;;;;50.80;31.83;;;8.60;99.90;;;;;;5012936;28;20125;-75
2023/05/09 01:58:08;;;;;;;50.63;31.23;;;8.60;99.90;;;;;;5041943;28;20127;-76
2023/05/09 02:00:36;;;;;;;49.30;31.50;;;8.60;99.90;;;;;;5049637;28;20037;-76
2023/05/09 02:03:06;;;;;;;48.80;30.75;;;8.60;99.90;;;;;;5049303;28;20095;-76
2023/05/09 02:05:34;;;;;;;52.65;32.70;;;8.50;99.90;;;;;;5049507;28;20477;-76
2023/05/09 02:08:02;;;;;;;59.00;33.78;;;8.50;99.90;;;;;;5048282;28;20041;-75
2023/05/09 02:10:36;;;;;;;55.50;31.33;;;8.50;99.90;;;;;;5046672;28;20045;-76
2023/05/09 02:13:05;;;;;;;48.15;30.17;;;8.50;99.90;;;;;;5049651;28;20099;-75
2023/05/09 02:15:33;;;;;;;48.88;29.08;;;8.50;99.90;;;;;;5048396;28;20564;-74
2023/05/09 02:18:01;;;;;;;41.42;29.48;;;8.40;99.90;;;;;;5048327;28;20052;-76
2023/05/09 02:20:34;;;;;;;43.22;29.73;;;8.30;99.90;;;;;;5049879;28;20055;-77
2023/05/09 02:23:02;;;;;;;41.47;28.35;;;8.30;99.90;;;;;;5050100;28;20120;-74
2023/05/09 02:25:30;;;;;;;37.15;27.30;;;8.30;99.90;;;;;;5048443;28;20056;-75
2023/05/09 02:27:59;;;;;;;50.58;30.63;;;8.20;99.90;;;;;;5048095;28;20037;-74
2023/05/09 02:30:33;;;;;;;34.92;27.05;;;8.10;99.90;;;;;;5047153;28;20254;-75
2023/05/09 02:33:04;;;;;;;37.75;27.05;;;8.10;99.90;;;;;;5046950;28;20051;-76
2023/05/09 02:35:34;;;;;;;35.47;26.50;;;8.00;99.90;;;;;;5050192;28;20044;-75
2023/05/09 02:38:02;;;;;;;36.78;24.38;;;8.10;99.90;;;;;;5047422;28;20129;-75
2023/05/09 02:40:30;;;;;;;30.27;22.85;;;8.00;99.90;;;;;;5048853;28;20436;-75
2023/05/09 02:42:58;;;;;;;29.38;19.83;;;8.00;99.90;;;;;;5047438;28;20052;-75
2023/05/09 02:45:25;;;;;;;27.73;19.50;;;8.00;99.90;;;;;;5052001;28;20049;-75
2023/05/09 02:47:53;;;;;;;28.90;19.95;;;8.10;99.90;;;;;;5053278;28;20057;-75
2023/05/09 02:50:20;;;;;;;27.00;19.60;;;8.10;99.90;;;;;;5053859;28;20505;-75
2023/05/09 02:52:49;;;;;;;29.35;19.73;;;8.20;99.90;;;;;;5051559;28;20041;-75
2023/05/09 02:55:16;;;;;;;28.30;18.98;;;8.20;99.90;;;;;;5051484;28;20124;-75
2023/05/09 02:57:44;;;;;;;31.52;20.35;;;8.30;99.90;;;;;;5053240;28;20029;-75
2023/05/09 03:00:12;;;;;;;26.20;18.98;;;8.30;99.90;;;;;;5052749;28;20135;-76
2023/05/09 03:02:40;;;;;;;26.73;19.45;;;8.30;99.90;;;;;;5052509;28;20091;-76
2023/05/09 03:05:14;;;;;;;26.35;18.33;;;8.30;99.90;;;;;;5052795;28;20119;-75
2023/05/09 03:07:44;;;;;;;25.13;17.25;;;8.30;99.90;;;;;;5051478;28;20091;-75
2023/05/09 03:10:13;;;;;;;23.80;16.95;;;8.30;99.90;;;;;;5059355;28;20052;-75
2023/05/09 03:12:42;;;;;;;23.48;16.73;;;8.30;99.90;;;;;;5061214;28;20682;-74
2023/05/09 03:15:10;;;;;;;23.50;16.25;;;8.30;99.90;;;;;;5051904;28;20067;-76
2023/05/09 03:17:40;;;;;;;26.92;16.23;;;8.30;99.90;;;;;;5050481;28;20051;-75
2023/05/09 03:20:10;;;;;;;29.73;17.30;;;8.20;99.90;;;;;;5052173;28;20110;-76
2023/05/09 03:22:37;;;;;;;23.63;17.35;;;8.20;99.90;;;;;;5052096;28;20037;-76
2023/05/09 03:25:08;;;;;;;27.52;18.63;;;8.20;99.90;;;;;;5051074;28;20132;-75
2023/05/09 03:27:37;;;;;;;28.42;18.63;;;8.20;99.90;;;;;;5049891;28;20113;-75
2023/05/09 03:30:08;;;;;;;27.10;18.83;;;8.20;99.90;;;;;;5050263;28;20526;-74
2023/05/09 03:32:36;;;;;;;30.55;17.60;;;8.20;99.90;;;;;;5052083;28;20492;-74
2023/05/09 03:35:04;;;;;;;31.80;18.85;;;8.20;99.90;;;;;;5052573;28;20057;-76
2023/05/09 03:37:34;;;;;;;29.77;20.13;;;8.30;99.90;;;;;;5050269;28;20033;-75
2023/05/09 03:40:02;;;;;;;33.00;20.23;;;8.30;99.90;;;;;;5049424;28;20052;-75
2023/05/09 03:42:34;;;;;;;34.28;20.50;;;8.30;99.90;;;;;;5051076;28;20108;-75
2023/05/09 03:45:05;;;;;;;42.38;23.48;;;8.40;99.90;;;;;;5047714;28;20055;-75
2023/05/09 03:47:36;;;;;;;40.08;22.67;;;8.50;99.90;;;;;;5035114;28;20100;-74
2023/05/09 03:50:04;;;;;;;47.38;25.23;;;8.60;99.90;;;;;;5054400;28;20125;-76
2023/05/09 03:52:32;;;;;;;48.10;26.17;;;8.60;99.90;;;;;;5040862;28;20040;-74
2023/05/09 03:55:01;;;;;;;48.90;26.35;;;8.70;99.90;;;;;;5063391;28;20055;-75
2023/05/09 03:57:32;;;;;;;61.40;28.70;;;8.80;99.90;;;;;;5050483;28;20052;-75
2023/05/09 04:00:00;;;;;;;66.47;29.17;;;8.90;99.90;;;;;;5049785;28;20477;-76
2023/05/09 04:02:29;;;;;;;77.45;31.90;;;8.90;99.90;;;;;;5049167;28;20112;-75
2023/05/09 04:04:56;;;;;;;73.18;29.58;;;9.00;99.90;;;;;;5033541;28;20116;-76
2023/05/09 04:07:25;;;;;;;107.22;30.40;;;9.00;99.90;;;;;;5051159;28;20041;-76
2023/05/09 04:09:54;;;;;;;76.60;32.72;;;9.10;99.90;;;;;;5052647;28;20084;-77
2023/05/09 04:12:21;;;;;;;80.43;33.33;;;9.20;99.90;;;;;;5043706;28;20040;-76
2023/05/09 04:14:50;;;;;;;94.55;32.55;;;9.20;99.90;;;;;;5031105;28;20043;-77
2023/05/09 04:17:23;;;;;;;126.13;30.90;;;9.20;99.90;;;;;;5032535;28;20520;-77
2023/05/09 04:19:52;;;;;;;71.78;30.38;;;9.20;99.90;;;;;;5032432;28;20047;-75
2023/05/09 04:22:20;;;;;;;107.05;33.45;;;9.20;99.90;;;;;;5032605;28;20072;-75
2023/05/09 04:24:49;;;;;;;91.63;34.10;;;9.30;99.90;;;;;;5033660;28;20400;-75
2023/05/09 04:27:16;;;;;;;75.53;32.97;;;9.30;99.90;;;;;;5052468;28;20069;-76
2023/05/09 04:29:43;;;;;;;54.53;29.42;;;9.30;99.90;;;;;;5046848;28;20045;-75
2023/05/09 04:32:11;;;;;;;58.33;29.73;;;9.30;99.90;;;;;;5030920;28;20052;-76
2023/05/09 04:34:40;;;;;;;57.63;30.23;;;9.30;99.90;;;;;;5031324;28;20037;-76
2023/05/09 04:37:17;;;;;;;110.32;32.08;;;9.30;99.90;;;;;;5030475;28;20044;-76
2023/05/09 04:39:45;;;;;;;51.25;30.02;;;9.40;99.90;;;;;;5030047;28;20077;-75
2023/05/09 04:42:19;;;;;;;50.85;29.15;;;9.50;99.90;;;;;;5031019;28;20484;-74
2023/05/09 04:44:48;;;;;;;64.53;29.58;;;9.50;99.90;;;;;;5030900;28;20440;-77
2023/05/09 04:47:16;;;;;;;66.38;30.38;;;9.60;99.90;;;;;;5033135;28;20045;-75
2023/05/09 04:49:44;;;;;;;50.28;29.45;;;9.70;99.90;;;;;;5048450;28;20052;-75
2023/05/09 04:52:13;;;;;;;67.18;28.75;;;9.70;99.90;;;;;;5028438;28;20087;-75
2023/05/09 04:54:42;;;;;;;55.30;28.30;;;9.70;99.90;;;;;;5030730;28;20052;-75
2023/05/09 04:57:10;;;;;;;61.03;28.13;;;9.70;99.90;;;;;;5031158;28;20045;-74
2023/05/09 04:59:38;;;;;;;54.40;28.90;;;9.80;99.90;;;;;;5031686;28;20041;-76
2023/05/09 05:02:06;;;;;;;53.20;26.90;;;9.80;99.90;;;;;;5030842;28;20067;-74
2023/05/09 05:04:35;;;;;;;52.47;28.95;;;9.90;99.90;;;;;;5030244;28;20037;-75
2023/05/09 05:07:04;;;;;;;54.05;29.38;;;10.00;99.90;;;;;;5029409;28;20056;-75
2023/05/09 05:09:32;;;;;;;58.33;28.80;;;10.10;99.90;;;;;;5030338;28;20049;-76
2023/05/09 05:12:01;;;;;;;54.63;25.90;;;10.20;99.90;;;;;;5030781;28;20049;-75
2023/05/09 05:14:28;;;;;;;55.35;27.35;;;10.20;99.90;;;;;;5041938;28;20124;-75
2023/05/09 05:16:56;;;;;;;48.60;28.90;;;10.30;99.90;;;;;;5034812;28;20220;-76
2023/05/09 05:19:25;;;;;;;65.90;29.55;;;10.30;99.90;;;;;;5033411;28;20045;-75
2023/05/09 05:21:52;;;;;;;49.55;27.00;;;10.40;99.90;;;;;;5032339;28;20570;-75
2023/05/09 05:24:19;;;;;;;41.25;26.63;;;10.50;99.90;;;;;;5031968;28;20099;-76
2023/05/09 05:26:48;;;;;;;43.78;28.33;;;10.60;99.90;;;;;;5032303;28;20079;-78
2023/05/09 05:29:17;;;;;;;36.25;25.00;;;10.70;99.90;;;;;;5030424;28;20037;-75
2023/05/09 05:31:45;;;;;;;35.92;25.00;;;10.80;99.90;;;;;;5030596;28;20087;-78
2023/05/09 05:34:15;;;;;;;33.13;23.13;;;10.80;99.90;;;;;;5030589;28;20420;-76
2023/05/09 05:36:42;;;;;;;35.80;24.90;;;10.80;99.90;;;;;;5048956;28;20037;-77
2023/05/09 05:39:12;;;;;;;33.42;23.85;;;10.90;99.90;;;;;;5028562;28;20120;-77
2023/05/09 05:41:39;;;;;;;36.45;24.95;;;11.10;99.90;;;;;;5049341;28;20072;-79
2023/05/09 05:44:08;;;;;;;36.40;22.45;;;11.30;99.90;;;;;;5031313;28;20052;-76
2023/05/09 05:46:37;;;;;;;37.00;24.70;;;11.30;99.90;;;;;;5030165;28;20045;-78
2023/05/09 05:49:05;;;;;;;32.80;22.35;;;11.40;99.90;;;;;;5029131;28;20037;-79
2023/05/09 05:51:34;;;;;;;31.40;21.42;;;11.50;99.90;;;;;;5030414;28;20500;-78
2023/05/09 05:54:03;;;;;;;29.17;22.25;;;11.70;99.90;;;;;;5031757;28;20128;-76
2023/05/09 05:56:30;;;;;;;32.42;22.52;;;11.80;99.90;;;;;;5051183;28;20041;-74
2023/05/09 05:58:58;;;;;;;34.35;24.73;;;11.60;99.90;;;;;;5030960;28;20095;-77
2023/05/09 06:01:26;;;;;;;30.55;22.83;;;11.60;99.90;;;;;;5056264;28;20048;-75
2023/05/09 06:03:55;;;;;;;33.40;24.23;;;12.00;99.90;;;;;;5045884;28;20075;-74
2023/05/09 06:06:26;;;;;;;30.67;22.23;;;12.50;99.90;;;;;;5059683;28;20041;-77
2023/05/09 06:08:56;;;;;;;28.38;20.63;;;13.00;99.90;;;;;;5033613;28;20045;-78
2023/05/09 06:11:23;;;;;;;29.35;20.70;;;13.60;99.90;;;;;;5030426;28;20049;-77
2023/05/09 06:13:53;;;;;;;28.65;20.98;;;14.20;99.90;;;;;;5038008;28;20037;-75
2023/05/09 06:16:21;;;;;;;29.98;21.50;;;14.50;99.90;;;;;;5067127;28;20047;-77
2023/05/09 06:18:50;;;;;;;27.10;21.05;;;14.80;99.90;;;;;;5065040;28;20037;-78
2023/05/09 06:21:19;;;;;;;30.35;20.35;;;15.10;99.90;;;;;;5035704;28;20106;-75
2023/05/09 06:23:46;;;;;;;32.88;19.27;;;15.40;99.90;;;;;;5049983;28;20069;-76
2023/05/09 06:26:14;;;;;;;30.17;20.02;;;15.90;99.90;;;;;;5035227;28;20048;-75
2023/05/09 06:28:41;;;;;;;24.75;18.17;;;16.10;99.90;;;;;;5060405;28;20045;-75
2023/05/09 06:31:09;;;;;;;26.17;18.45;;;16.30;99.90;;;;;;5062511;28;20080;-77
2023/05/09 06:33:36;;;;;;;26.10;17.25;;;16.40;99.90;;;;;;5062635;28;20036;-77
2023/05/09 06:36:04;;;;;;;29.90;17.63;;;16.60;99.90;;;;;;5062431;28;20051;-75
2023/05/09 06:38:34;;;;;;;26.17;18.65;;;16.70;99.90;;;;;;5040508;28;20144;-78
2023/05/09 06:41:03;;;;;;;25.02;18.10;;;16.90;99.90;;;;;;5059952;28;20049;-74
2023/05/09 06:43:31;;;;;;;23.85;18.17;;;17.10;99.90;;;;;;5041653;28;20118;-75
2023/05/09 06:45:58;;;;;;;25.02;19.20;;;17.20;99.90;;;;;;5055622;28;20041;-75
2023/05/09 06:48:26;;;;;;;25.55;19.10;;;16.90;99.90;;;;;;5053144;28;20040;-77
2023/05/09 06:50:53;;;;;;;25.35;19.05;;;17.10;99.90;;;;;;5054541;28;20057;-77
2023/05/09 06:53:20;;;;;;;28.15;22.35;;;17.60;99.90;;;;;;5053131;28;20096;-77
2023/05/09 06:55:49;;;;;;;25.48;19.52;;;18.00;99.90;;;;;;5049185;28;20520;-77
2023/05/09 06:58:17;;;;;;;26.73;21.55;;;18.00;99.90;;;;;;5052817;28;20603;-77
2023/05/09 07:00:44;;;;;;;28.73;20.45;;;18.30;99.90;;;;;;5060390;28;20037;-78
2023/05/09 07:03:11;;;;;;;31.48;19.80;;;18.20;99.90;;;;;;5062309;28;20064;-77
2023/05/09 07:05:40;;;;;;;29.38;19.50;;;17.90;99.90;;;;;;5051292;28;20044;-76
2023/05/09 07:08:07;;;;;;;22.63;17.98;;;17.90;99.90;;;;;;5051838;28;20508;-77
2023/05/09 07:10:35;;;;;;;22.00;16.73;;;17.80;99.90;;;;;;5050609;28;20049;-76
2023/05/09 07:13:04;;;;;;;23.40;18.27;;;18.00;99.90;;;;;;5059689;28;20076;-77
2023/05/09 07:15:31;;;;;;;26.77;19.20;;;18.10;99.90;;;;;;5063189;28;20033;-75
2023/05/09 07:17:59;;;;;;;28.60;21.25;;;18.10;99.90;;;;;;5045643;28;20057;-75
2023/05/09 07:20:29;;;;;;;32.45;21.10;;;18.00;99.90;;;;;;5052440;28;20037;-77
2023/05/09 07:22:57;;;;;;;26.45;19.42;;;18.20;99.90;;;;;;5049032;28;20132;-75
2023/05/09 07:25:25;;;;;;;23.85;18.58;;;18.40;99.90;;;;;;5028323;28;20140;-76
2023/05/09 07:27:53;;;;;;;27.08;17.90;;;18.30;99.90;;;;;;5047549;28;20496;-78
2023/05/09 07:30:22;;;;;;;35.38;19.00;;;17.70;99.90;;;;;;5049358;28;20043;-75
2023/05/09 07:32:50;;;;;;;26.38;17.90;;;17.50;99.90;;;;;;5052727;28;20469;-78
2023/05/09 07:35:17;;;;;;;19.92;16.13;;;16.90;99.90;;;;;;5053229;28;20048;-77
2023/05/09 07:37:45;;;;;;;24.65;17.02;;;16.90;99.90;;;;;;5053135;28;20095;-77
2023/05/09 07:40:13;;;;;;;23.83;16.05;;;16.90;99.90;;;;;;5052094;28;20103;-76
2023/05/09 07:42:43;;;;;;;25.15;16.67;;;17.00;99.90;;;;;;5053008;28;20547;-75
2023/05/09 07:45:11;;;;;;;27.35;21.30;;;17.20;99.90;;;;;;5051060;28;20072;-78
2023/05/09 07:47:40;;;;;;;25.27;17.50;;;17.50;99.90;;;;;;5050149;28;20079;-80
2023/05/09 07:50:08;;;;;;;24.00;16.75;;;17.90;99.90;;;;;;5048520;28;20400;-77
2023/05/09 07:52:36;;;;;;;23.73;16.30;;;18.40;99.90;;;;;;5048916;28;20037;-76
2023/05/09 07:55:04;;;;;;;23.88;15.70;;;18.70;96.40;;;;;;5031645;28;20064;-77
2023/05/09 07:57:31;;;;;;;18.90;14.52;;;18.60;94.40;;;;;;5051772;28;20061;-76
2023/05/09 07:59:59;;;;;;;18.27;13.98;;;18.30;93.30;;;;;;5049795;28;20091;-76
2023/05/09 08:02:27;;;;;;;21.70;13.88;;;17.60;95.50;;;;;;5051851;28;20072;-75
2023/05/09 08:04:55;;;;;;;22.15;13.60;;;17.50;99.90;;;;;;5036108;28;20064;-77
2023/05/09 08:07:23;;;;;;;16.98;12.57;;;17.60;99.90;;;;;;5069813;28;20049;-77
2023/05/09 08:09:55;;;;;;;18.30;10.90;;;17.90;97.90;;;;;;5068345;28;20041;-77
2023/05/09 08:12:22;;;;;;;18.23;12.70;;;17.60;96.80;;;;;;5053040;28;20056;-77
2023/05/09 08:14:50;;;;;;;20.05;13.48;;;17.60;99.50;;;;;;5066205;28;20104;-76
2023/05/09 08:17:17;;;;;;;15.93;11.23;;;17.90;97.90;;;;;;5059106;28;20052;-74
2023/05/09 08:19:45;;;;;;;18.17;12.57;;;18.00;96.00;;;;;;5060135;28;20037;-75
2023/05/09 08:22:18;;;;;;;18.80;10.23;;;18.00;96.20;;;;;;5056213;28;20071;-76
2023/05/09 08:24:46;;;;;;;17.23;10.85;;;18.00;95.70;;;;;;5056404;28;20114;-74
2023/05/09 08:27:14;;;;;;;13.63;8.93;;;17.90;96.50;;;;;;5035129;28;20044;-74
2023/05/09 08:29:42;;;;;;;13.48;8.57;;;18.20;93.20;;;;;;5038126;28;20045;-74
2023/05/09 08:32:09;;;;;;;13.15;8.95;;;18.70;90.50;;;;;;5053470;28;20075;-75
2023/05/09 08:34:37;;;;;;;12.15;9.70;;;18.70;87.30;;;;;;5032622;28;20112;-75
2023/05/09 08:37:05;;;;;;;19.10;11.00;;;19.20;86.70;;;;;;5054284;28;20072;-75
2023/05/09 08:39:35;;;;;;;13.75;8.60;;;19.40;84.50;;;;;;5065183;28;20064;-75
2023/05/09 08:42:05;;;;;;;13.88;9.30;;;19.40;83.00;;;;;;5053275;28;20029;-76
2023/05/09 08:44:33;;;;;;;9.63;6.35;;;19.60;82.30;;;;;;5060077;28;20029;-75
2023/05/09 08:47:02;;;;;;;13.02;7.22;;;19.80;78.00;;;;;;5039604;28;20072;-76
2023/05/09 08:49:32;;;;;;;10.55;7.63;;;19.70;77.50;;;;;;5055990;28;20055;-75
2023/05/09 08:52:00;;;;;;;11.88;7.43;;;19.60;77.00;;;;;;5052679;28;20050;-76
2023/05/09 08:54:28;;;;;;;10.30;6.00;;;19.40;76.80;;;;;;5052226;28;20603;-76
2023/05/09 08:56:57;;;;;;;8.25;5.40;;;19.60;75.90;;;;;;5034079;28;20663;-75
2023/05/09 08:59:26;;;;;;;10.25;5.63;;;19.60;73.40;;;;;;5050071;28;20120;-75
2023/05/09 09:01:54;;;;;;;8.20;5.95;;;19.60;72.50;;;;;;5030789;28;20065;-74
2023/05/09 09:04:27;;;;;;;8.32;5.53;;;19.60;73.70;;;;;;5049630;28;20040;-75
2023/05/09 09:06:55;;;;;;;25.55;6.72;;;19.90;73.40;;;;;;5030901;28;20125;-75
2023/05/09 09:09:23;;;;;;;11.85;7.07;;;20.30;72.20;;;;;;5049554;28;20043;-77
2023/05/09 09:11:52;;;;;;;14.27;7.28;;;20.60;72.70;;;;;;5049842;28;20059;-75
2023/05/09 09:14:25;;;;;;;13.02;9.82;;;20.50;72.00;;;;;;5049189;28;20041;-77
2023/05/09 09:16:55;;;;;;;13.15;8.63;;;20.20;74.40;;;;;;5051397;28;20037;-76
2023/05/09 09:19:27;;;;;;;12.80;8.43;;;19.90;74.60;;;;;;5060794;28;20116;-75
2023/05/09 09:21:57;;;;;;;15.88;9.73;;;19.60;74.90;;;;;;5059585;28;20043;-75
2023/05/09 09:24:25;;;;;;;12.50;7.72;;;19.40;77.90;;;;;;5042650;28;20032;-75
2023/05/09 09:26:52;;;;;;;13.00;7.85;;;19.30;76.20;;;;;;5061581;28;20045;-75
2023/05/09 09:29:21;;;;;;;11.25;8.40;;;19.30;74.50;;;;;;5053694;28;20060;-76
2023/05/09 09:31:54;;;;;;;12.88;7.03;;;19.20;75.20;;;;;;5061672;28;20045;-76
2023/05/09 09:34:23;;;;;;;12.18;7.63;;;19.10;76.30;;;;;;5056688;28;20045;-77
2023/05/09 09:36:51;;;;;;;14.75;7.72;;;19.00;77.40;;;;;;5051438;28;20492;-75
2023/05/09 09:39:18;;;;;;;12.63;5.93;;;18.80;78.50;;;;;;5050827;28;20048;-74
2023/05/09 09:41:46;;;;;;;9.15;4.70;;;19.10;75.80;;;;;;5049907;28;20052;-75
2023/05/09 09:44:15;;;;;;;6.45;4.90;;;19.20;72.80;;;;;;5049525;28;20127;-75
2023/05/09 09:46:47;;;;;;;9.93;6.32;;;19.20;72.90;;;;;;5048877;28;20041;-76
2023/05/09 09:49:15;;;;;;;12.30;7.38;;;19.40;73.40;;;;;;5048714;28;20068;-75
2023/05/09 09:51:43;;;;;;;12.30;6.55;;;19.60;73.40;;;;;;5048474;28;20041;-74
2023/05/09 09:54:12;;;;;;;11.30;6.85;;;19.90;72.90;;;;;;5030977;28;20440;-74
2023/05/09 09:56:42;;;;;;;8.45;5.22;;;20.00;71.70;;;;;;5050789;28;20049;-75
2023/05/09 09:59:12;;;;;;;8.48;5.70;;;20.20;70.40;;;;;;5030672;28;20064;-74
2023/05/09 10:01:58;;;;;;;7.10;5.05;;;20.10;69.90;;;;;;5048051;28;20136;-75
2023/05/09 10:04:28;;;;;;;13.48;6.90;;;20.10;69.70;;;;;;5049064;28;20100;-74
2023/05/09 10:06:57;;;;;;;6.25;4.32;;;20.30;69.50;;;;;;5030536;28;20053;-74
2023/05/09 10:09:25;;;;;;;8.75;4.35;;;20.80;66.60;;;;;;5047787;28;20044;-74
2023/05/09 10:11:54;;;;;;;6.82;4.35;;;21.10;65.20;;;;;;5047351;28;20053;-74
2023/05/09 10:14:23;;;;;;;5.72;3.80;;;21.10;64.10;;;;;;5048148;28;20507;-74
2023/05/09 10:16:54;;;;;;;9.25;3.60;;;21.50;62.30;;;;;;5051083;28;20144;-75
2023/05/09 10:19:25;;;;;;;6.53;4.03;;;20.90;60.90;;;;;;5052220;28;20053;-77
2023/05/09 10:21:54;;;;;;;7.40;4.03;;;21.10;62.30;;;;;;5038040;28;20044;-75
2023/05/09 10:24:28;;;;;;;7.53;3.13;;;21.40;60.70;;;;;;5057967;28;20053;-75
2023/05/09 10:27:04;;;;;;;9.55;4.88;;;21.40;59.90;;;;;;5071411;28;20033;-76
2023/05/09 10:29:36;;;;;;;8.23;3.30;;;21.70;60.00;;;;;;5044258;28;20430;-76
2023/05/09 10:32:11;;;;;;;5.80;2.63;;;21.30;60.30;;;;;;5049802;28;20571;-75
2023/05/09 10:34:44;;;;;;;11.88;3.90;;;20.80;60.80;;;;;;5049097;28;20045;-75
2023/05/09 10:37:12;;;;;;;6.35;3.33;;;20.70;62.10;;;;;;5049452;28;20111;-76
2023/05/09 10:39:40;;;;;;;7.13;3.63;;;20.40;61.90;;;;;;5047874;28;20029;-76
2023/05/09 10:42:09;;;;;;;8.02;4.63;;;20.50;62.80;;;;;;5047190;28;20040;-75
2023/05/09 10:44:38;;;;;;;7.22;3.45;;;20.80;63.80;;;;;;5030315;28;20544;-77
2023/05/09 10:47:07;;;;;;;6.07;3.50;;;21.00;62.10;;;;;;5048895;28;20415;-76
2023/05/09 10:49:35;;;;;;;9.27;3.42;;;21.20;61.20;;;;;;5047236;28;20057;-76
2023/05/09 10:52:07;;;;;;;16.52;3.47;;;21.20;59.80;;;;;;5047012;28;20052;-75
2023/05/09 10:54:37;;;;;;;7.18;3.10;;;20.90;59.00;;;;;;5048924;28;20080;-75
2023/05/09 10:57:09;;;;;;;6.22;4.82;;;20.80;60.10;;;;;;5049077;28;20048;-76
2023/05/09 10:59:38;;;;;;;7.65;4.10;;;20.50;61.20;;;;;;5032151;28;20049;-77
2023/05/09 11:02:11;;;;;;;8.65;4.03;;;20.10;62.30;;;;;;5050492;28;20040;-76
2023/05/09 11:04:39;;;;;;;6.30;3.15;;;20.30;60.70;;;;;;5051049;28;20056;-76
2023/05/09 11:07:23;;;;;;;8.77;4.40;;;20.90;59.80;;;;;;5070725;28;20048;-78
2023/05/09 11:09:52;;;;;;;9.00;4.78;;;21.10;60.60;;;;;;5055298;28;20437;-75
2023/05/09 11:12:21;;;;;;;8.90;4.03;;;21.10;59.60;;;;;;5053195;28;20481;-76
2023/05/09 11:14:50;;;;;;;6.63;3.72;;;21.30;59.60;;;;;;5053692;28;20039;-76
2023/05/09 11:17:30;;;;;;;6.45;3.47;;;21.60;58.70;;;;;;5053757;28;20044;-76
2023/05/09 11:20:04;;;;;;;8.60;3.97;;;21.70;57.60;;;;;;5053010;28;20068;-77
2023/05/09 11:22:40;;;;;;;6.10;3.13;;;21.50;56.90;;;;;;5052788;28;20547;-76
2023/05/09 11:25:09;;;;;;;11.63;3.97;;;21.30;57.20;;;;;;5053575;28;20067;-77
2023/05/09 11:27:43;;;;;;;12.18;4.53;;;21.30;57.20;;;;;;5052695;28;20044;-78
2023/05/09 11:30:13;;;;;;;7.80;3.42;;;21.20;58.10;;;;;;5034718;28;20051;-75
2023/05/09 11:32:50;;;;;;;9.90;4.10;;;21.30;56.90;;;;;;5053852;28;20045;-76
2023/05/09 11:35:19;;;;;;;6.38;3.85;;;21.20;57.90;;;;;;5053632;28;20045;-75
2023/05/09 11:37:53;;;;;;;7.22;3.75;;;21.20;58.20;;;;;;5053666;28;20059;-75
2023/05/09 11:40:22;;;;;;;6.68;3.75;;;21.30;58.40;;;;;;5052595;28;20099;-76
2023/05/09 11:42:52;;;;;;;6.65;3.67;;;21.40;56.80;;;;;;5051881;28;20037;-74
2023/05/09 11:45:21;;;;;;;7.13;3.90;;;21.40;56.90;;;;;;5069863;28;20100;-76
2023/05/09 11:47:50;;;;;;;9.77;4.88;;;21.50;56.50;;;;;;5050753;28;20045;-76
2023/05/09 11:50:20;;;;;;;6.72;3.92;;;21.50;56.50;;;;;;5068465;28;20041;-74
2023/05/09 11:52:50;;;;;;;8.02;3.95;;;21.40;56.00;;;;;;5070281;28;20609;-75
2023/05/09 11:55:19;;;;;;;8.60;3.95;;;21.10;57.00;;;;;;5040420;28;20112;-74
2023/05/09 11:57:48;;;;;;;8.25;4.07;;;20.80;57.60;;;;;;5054616;28;20132;-75
2023/05/09 12:00:17;;;;;;;5.60;3.50;;;20.70;58.60;;;;;;5054945;28;20041;-75
2023/05/09 12:02:48;;;;;;;6.20;3.50;;;20.70;60.30;;;;;;5050525;28;20416;-76
2023/05/09 12:05:17;;;;;;;8.73;3.90;;;20.40;61.40;;;;;;5044542;28;20045;-76
2023/05/09 12:07:45;;;;;;;11.13;4.85;;;20.00;62.50;;;;;;5044870;28;20036;-75
2023/05/09 12:10:16;;;;;;;7.70;3.45;;;20.10;63.00;;;;;;5057638;28;20049;-77
2023/05/09 12:12:45;;;;;;;7.50;3.67;;;20.10;61.90;;;;;;5066400;28;20041;-76
2023/05/09 12:15:13;;;;;;;6.78;3.95;;;20.00;60.50;;;;;;5044744;28;20043;-75
2023/05/09 12:17:41;;;;;;;5.13;3.63;;;19.70;60.90;;;;;;5062473;28;20127;-75
2023/05/09 12:20:09;;;;;;;12.00;5.50;;;19.40;62.00;;;;;;5063132;28;20048;-75
2023/05/09 12:22:38;;;;;;;7.43;3.53;;;19.40;62.70;;;;;;5060627;28;20517;-74
2023/05/09 12:25:08;;;;;;;9.52;4.10;;;19.40;62.60;;;;;;5067949;28;20059;-75
2023/05/09 12:27:38;;;;;;;9.00;4.18;;;19.50;62.50;;;;;;5059879;28;20109;-75
2023/05/09 12:30:09;;;;;;;7.85;4.00;;;19.30;63.30;;;;;;5076401;28;20087;-75
2023/05/09 12:32:38;;;;;;;7.93;3.80;;;19.20;64.10;;;;;;5060959;28;20083;-76
2023/05/09 12:35:08;;;;;;;6.70;4.10;;;19.40;64.40;;;;;;5063426;28;20036;-76
2023/05/09 12:37:37;;;;;;;6.22;3.95;;;19.70;63.20;;;;;;5073973;28;20781;-76
2023/05/09 12:40:11;;;;;;;8.23;3.85;;;19.70;62.60;;;;;;5074125;28;20045;-75
2023/05/09 12:42:43;;;;;;;6.60;3.88;;;19.80;61.90;;;;;;5070240;28;20041;-76
2023/05/09 12:45:11;;;;;;;6.78;3.78;;;19.70;62.10;;;;;;5060936;28;20065;-76